Latest Weather Observations for Naracoorte

IDS60801

Issued at 4:05 am CST Sunday 24 August 2014 (issued every 30 minutes, with the page automatically refreshed every 10 minutes)

About weather observations | Map of weather stations | Latest weather observations for SA | Other Formats
Station Details ID: 026099 Name: NARACOORTE AERODROME Lat: -36.98 Lon: 140.73 Height: 49.72 m
Data from the previous 72 hours. | See also: Recent months at Naracoorte
Date/Time
CST
Temp
°C
App
Temp
°C
Dew
Point
Rel
Hum
%
Delta-T
°C
Wind Press
QNH
hPa
Press
MSL
hPa
Rain
since 9 am
mm
Dir
 
Spd
km/h
Gust
km/h
Spd
kts
Gust
kts
24/04:00am 6.5 3.9 6.1 97 0.2 NNW 9 11 5 6 1026.3 1026.4 2.2
24/03:30am 6.9 4.4 6.5 97 0.2 NNW 9 11 5 6 1026.2 1026.3 2.2
24/03:00am 7.3 4.9 6.9 97 0.2 NW 9 11 5 6 1026.1 1026.2 2.0
24/02:30am 7.7 5.4 7.4 98 0.1 NW 9 13 5 7 1026.2 1026.3 2.0
24/02:00am 7.5 5.1 7.2 98 0.1 N 9 11 5 6 1026.2 1026.3 2.0
24/01:30am 7.3 4.1 7.0 98 0.1 NNW 13 17 7 9 1026.3 1026.4 2.0
24/01:00am 7.2 4.0 6.8 97 0.2 NNW 13 15 7 8 1026.2 1026.3 2.0
24/12:30am 7.8 4.3 7.4 97 0.2 NNW 15 19 8 10 1026.1 1026.2 2.0
24/12:00am 8.4 5.1 8.0 97 0.2 NNW 15 20 8 11 1026.1 1026.2 2.0
 
Date/Time
CST
Temp
°C
App
Temp
°C
Dew
Point
Rel
Hum
%
Delta-T
°C
Wind Press
QNH
hPa
Press
MSL
hPa
Rain
since 9 am
mm
Dir
 
Spd
km/h
Gust
km/h
Spd
kts
Gust
kts
23/11:30pm 8.5 5.2 8.1 97 0.2 NNW 15 17 8 9 1026.0 1026.1 2.0
23/11:00pm 8.8 5.5 8.2 96 0.3 NNW 15 19 8 10 1025.9 1026.0 2.0
23/10:30pm 9.0 5.7 8.2 95 0.4 N 15 19 8 10 1025.9 1026.0 2.0
23/10:00pm 9.8 7.1 9.0 95 0.4 NNW 13 19 7 10 1025.8 1025.9 2.0
23/09:30pm 10.2 6.9 9.4 95 0.4 NW 17 22 9 12 1025.8 1025.9 2.0
23/09:00pm 9.9 7.1 8.7 92 0.6 NNW 13 19 7 10 1025.5 1025.6 1.8
23/08:30pm 10.7 6.8 9.3 91 0.7 NW 20 26 11 14 1025.3 1025.4 1.8
23/08:00pm 10.5 7.5 9.3 92 0.6 NNW 15 20 8 11 1024.9 1025.0 1.8
23/07:30pm 10.3 7.7 9.2 93 0.5 NNW 13 19 7 10 1024.6 1024.7 1.8
23/07:00pm 10.4 7.8 9.2 92 0.6 NNW 13 17 7 9 1024.5 1024.6 1.6
23/06:30pm 11.4 7.6 9.8 90 0.8 NW 20 32 11 17 1024.2 1024.3 1.6
23/06:00pm 11.2 7.8 9.3 88 0.9 NW 17 20 9 11 1024.0 1024.1 1.6
23/05:30pm 12.6 7.2 9.6 82 1.5 WNW 28 35 15 19 1023.6 1023.7 1.6
23/05:00pm 13.2 7.7 9.1 76 2.1 WNW 28 33 15 18 1023.2 1023.2 1.6
23/04:30pm 13.7 9.2 10.1 79 1.9 NW 24 28 13 15 1022.9 1022.9 1.6
23/04:00pm 13.2 9.4 9.8 80 1.7 NNW 20 28 11 15 1022.6 1022.6 1.6
23/03:30pm 13.6 9.5 10.0 79 1.9 NNW 22 32 12 17 1022.5 1022.5 1.6
23/03:00pm 12.2 8.2 10.3 88 1.0 NNW 22 33 12 18 1022.6 1022.6 1.6
23/02:30pm 10.0 6.5 8.6 91 0.7 NNW 17 20 9 11 1022.7 1022.7 1.0
23/02:00pm 10.4 4.3 8.2 86 1.1 WNW 30 41 16 22 1022.9 1022.9 0.0
23/01:30pm 11.9 5.5 8.4 79 1.7 W 32 46 17 25 1022.7 1022.7 0.0
23/01:00pm 12.2 3.9 9.2 82 1.5 W 43 57 23 31 1022.5 1022.5 0.0
23/12:42pm 15.5 4.7 10.1 70 2.8 W 57 76 31 41 1021.9 1021.9 0.0
23/12:41pm 15.3 3.7 9.7 69 2.9 W 61 76 33 41 1021.8 1021.8 0.0
23/12:39pm 16.5 5.3 8.5 59 4.1 NW 57 87 31 47 1021.4 1021.4 0.0
23/12:35pm 17.4 11.4 7.2 51 5.1 NW 28 48 15 26 1021.3 1021.3 0.0
23/12:30pm 17.3 12.4 8.4 56 4.5 NNW 24 30 13 16 1021.3 1021.3 0.0
23/12:00pm 17.5 11.3 7.8 53 4.9 N 30 39 16 21 1021.1 1021.1 0.0
23/11:42am 17.4 11.3 8.3 55 4.6 N 30 50 16 27 1021.4 1021.4 0.0
23/11:30am 17.0 12.2 8.7 58 4.3 N 24 43 13 23 1021.7 1021.7 0.0
23/11:00am 16.1 10.3 8.1 59 4.0 N 28 41 15 22 1022.1 1022.1 0.0
23/10:46am 16.1 10.4 8.3 60 4.0 N 28 46 15 25 1022.1 1022.1 0.0
23/10:30am 15.7 9.8 7.7 59 4.0 N 28 43 15 23 1022.2 1022.2 0.0
23/10:19am 15.5 9.8 8.5 63 3.6 N 28 46 15 25 1022.3 1022.3 0.0
23/10:00am 15.1 8.8 7.4 60 3.8 N 30 44 16 24 1022.4 1022.4 0.0
23/09:57am 15.2 9.5 8.2 63 3.5 N 28 46 15 25 1022.4 1022.4 0.0
23/09:30am 13.7 7.0 7.2 65 3.2 NNE 32 41 17 22 1022.6 1022.6 0.0
23/09:00am 12.5 5.9 6.1 65 3.0 NNE 30 37 16 20 1022.8 1022.8 0.0
23/08:30am 11.6 5.7 5.7 67 2.7 NNE 26 35 14 19 1023.1 1023.1 0.0
23/08:00am 11.0 4.7 5.5 69 2.5 NNE 28 35 15 19 1023.0 1023.0 0.0
23/07:30am 9.9 3.6 5.5 74 2.0 NE 28 35 15 19 1022.9 1022.9 0.0
23/07:00am 9.3 2.9 5.3 76 1.8 NE 28 35 15 19 1022.9 1022.9 0.0
23/06:30am 9.2 2.5 5.4 77 1.7 NE 30 35 16 19 1022.9 1022.9 0.0
23/06:00am 8.9 2.6 5.5 79 1.5 NE 28 39 15 21 1022.9 1022.9 0.0
23/05:30am 9.1 2.4 5.8 80 1.5 NE 30 39 16 21 1022.8 1022.8 0.0
23/05:00am 9.0 2.7 5.9 81 1.4 NE 28 35 15 19 1022.8 1022.8 0.0
23/04:30am 9.2 3.4 6.1 81 1.4 NE 26 33 14 18 1023.1 1023.1 0.0
23/04:00am 9.2 3.4 6.1 81 1.4 NE 26 33 14 18 1023.1 1023.1 0.0
23/03:30am 9.6 3.8 6.3 80 1.5 NE 26 30 14 16 1023.2 1023.2 0.0
23/03:00am 10.0 4.3 6.5 79 1.6 NE 26 32 14 17 1023.3 1023.3 0.0
23/02:30am 9.7 4.3 6.4 80 1.5 NE 24 28 13 15 1023.5 1023.6 0.0
23/02:00am 9.8 4.8 6.5 80 1.5 NE 22 28 12 15 1023.7 1023.8 0.0
23/01:30am 9.8 5.1 6.2 78 1.7 NNE 20 24 11 13 1024.1 1024.2 0.0
23/01:00am 10.1 5.1 6.3 77 1.8 NE 22 30 12 16 1024.1 1024.2 0.0
23/12:30am 10.5 5.9 6.3 75 2.0 NNE 20 30 11 16 1024.4 1024.5 0.0
23/12:00am 10.5 5.4 5.9 73 2.1 NNE 22 30 12 16 1024.6 1024.7 0.0
 
Date/Time
CST
Temp
°C
App
Temp
°C
Dew
Point
Rel
Hum
%
Delta-T
°C
Wind Press
QNH
hPa
Press
MSL
hPa
Rain
since 9 am
mm
Dir
 
Spd
km/h
Gust
km/h
Spd
kts
Gust
kts
22/11:30pm 10.9 6.2 6.1 72 2.2 NNE 20 28 11 15 1024.7 1024.8 0.0
22/11:00pm 11.2 6.1 5.9 70 2.5 NE 22 30 12 16 1024.8 1024.9 0.0
22/10:30pm 11.1 5.9 5.6 69 2.5 NE 22 30 12 16 1024.9 1025.0 0.0
22/10:00pm 11.2 6.4 5.7 69 2.6 NE 20 28 11 15 1025.0 1025.1 0.0
22/09:30pm 11.2 6.6 5.7 69 2.5 NNE 19 22 10 12 1025.2 1025.3 0.0
22/09:00pm 12.0 7.5 5.9 66 2.8 NNE 19 22 10 12 1025.2 1025.3 0.0
22/08:30pm 11.5 7.3 5.8 68 2.6 NE 17 22 9 12 1025.1 1025.2 0.0
22/08:00pm 11.0 6.9 6.0 71 2.3 NE 17 22 9 12 1025.0 1025.1 0.0
22/07:30pm 10.0 6.0 5.0 71 2.2 NE 15 17 8 9 1024.9 1025.0 0.0
22/07:00pm 11.0 7.0 5.1 67 2.7 ENE 15 17 8 9 1024.8 1024.9 0.0
22/06:30pm 11.8 8.3 5.4 65 2.9 ENE 13 15 7 8 1024.7 1024.8 0.0
22/06:00pm 12.8 9.7 5.5 61 3.4 ENE 11 13 6 7 1024.6 1024.7 0.0
22/05:30pm 14.3 10.5 5.9 57 4.0 NE 15 19 8 10 1024.4 1024.5 0.0
22/05:00pm 16.3 11.7 5.6 49 5.2 NE 19 24 10 13 1024.3 1024.4 0.0
22/04:30pm 17.4 12.8 5.4 45 5.8 NE 19 24 10 13 1024.3 1024.4 0.0
22/04:00pm 18.3 13.8 6.2 45 6.0 NNE 19 24 10 13 1024.3 1024.4 0.0
22/03:30pm 18.8 14.0 4.6 39 6.8 NNE 19 24 10 13 1024.5 1024.6 0.0
22/03:00pm 17.7 12.1 5.3 44 6.0 NNE 24 32 13 17 1024.7 1024.8 0.0
22/02:30pm 18.3 12.8 5.8 44 6.1 NE 24 33 13 18 1024.9 1025.0 0.0
22/02:00pm 17.9 12.6 5.2 43 6.1 NE 22 32 12 17 1025.2 1025.3 0.0
22/01:30pm 18.2 13.6 6.4 46 5.8 N 20 35 11 19 1025.7 1025.8 0.0
22/01:00pm 18.4 13.2 5.3 42 6.4 NE 22 33 12 18 1026.1 1026.2 0.0
22/12:30pm 18.8 13.4 7.9 49 5.6 NNE 26 35 14 19 1026.6 1026.7 0.0
22/12:00pm 18.3 12.2 6.5 46 5.8 N 28 35 15 19 1026.9 1027.0 0.0
22/11:30am 17.8 12.6 7.2 50 5.3 N 24 32 13 17 1027.4 1027.5 0.0
22/11:00am 16.1 11.0 7.6 57 4.3 N 24 33 13 18 1027.9 1028.0 0.0
22/10:30am 15.5 11.3 7.5 59 4.0 NNE 19 32 10 17 1028.2 1028.3 0.0
22/10:00am 13.5 9.7 7.5 67 2.9 NNE 17 26 9 14 1028.5 1028.6 0.0
22/09:30am 12.4 9.3 7.3 71 2.5 NNE 13 20 7 11 1028.7 1028.8 0.0
22/09:00am 11.3 6.9 6.4 72 2.3 NNE 19 28 10 15 1028.7 1028.8 0.0
22/08:30am 10.6 5.5 6.2 74 2.0 NNE 22 30 12 16 1028.5 1028.6 0.0
22/08:00am 10.4 4.9 6.0 74 2.0 NNE 24 35 13 19 1028.2 1028.3 0.0
22/07:30am 9.9 4.8 6.1 77 1.7 NE 22 32 12 17 1027.9 1028.0 0.0
22/07:00am 9.6 4.1 6.0 78 1.7 NE 24 30 13 16 1027.6 1027.7 0.0
22/06:30am 9.2 4.5 5.9 80 1.5 NE 20 26 11 14 1027.2 1027.3 0.0
22/06:00am 8.5 3.7 5.4 81 1.4 NE 20 24 11 13 1027.0 1027.1 0.0
22/05:30am 8.0 3.3 5.1 82 1.3 NE 19 22 10 12 1026.9 1027.0 0.0
22/05:00am 7.1 2.3 4.4 83 1.2 NE 19 22 10 12 1026.8 1026.9 0.0
22/04:30am 7.2 2.4 4.5 83 1.2 NE 19 22 10 12 1026.7 1026.8 0.0
22/04:00am 7.1 2.3 4.4 83 1.2 NE 19 22 10 12 1026.6 1026.7 0.0
22/03:30am 6.9 2.5 4.6 85 1.0 NE 17 20 9 11 1026.7 1026.8 0.0
22/03:00am 7.1 3.0 4.2 82 1.2 NE 15 20 8 11 1026.9 1027.0 0.0
22/02:30am 7.4 2.4 4.5 82 1.3 NE 20 22 11 12 1027.1 1027.2 0.0
22/02:00am 6.9 3.2 4.2 83 1.2 NE 13 17 7 9 1027.3 1027.4 0.0
22/01:30am 7.2 2.8 4.5 83 1.2 NE 17 20 9 11 1027.4 1027.5 0.0
22/01:00am 7.3 2.5 4.6 83 1.2 NE 19 22 10 12 1027.5 1027.6 0.0
22/12:30am 6.9 2.8 4.4 84 1.1 NE 15 17 8 9 1027.5 1027.6 0.0
22/12:00am 7.3 3.6 4.6 83 1.2 NE 13 15 7 8 1027.5 1027.6 0.0
 
Date/Time
CST
Temp
°C
App
Temp
°C
Dew
Point
Rel
Hum
%
Delta-T
°C
Wind Press
QNH
hPa
Press
MSL
hPa
Rain
since 9 am
mm
Dir
 
Spd
km/h
Gust
km/h
Spd
kts
Gust
kts
21/11:30pm 6.7 2.9 4.0 83 1.1 NE 13 15 7 8 1027.6 1027.7 0.0
21/11:00pm 6.9 3.6 4.4 84 1.1 NE 11 13 6 7 1027.7 1027.8 0.0
21/10:30pm 6.8 3.1 4.3 84 1.1 NE 13 15 7 8 1027.7 1027.8 0.0
21/10:00pm 6.8 2.7 4.6 86 1.0 ENE 15 17 8 9 1027.8 1027.9 0.0
21/09:30pm 6.1 2.7 3.8 85 1.0 ENE 11 13 6 7 1027.8 1027.9 0.0
21/09:00pm 6.5 3.1 3.8 83 1.1 ENE 11 11 6 6 1027.8 1027.9 0.0
21/08:30pm 6.7 3.8 4.4 85 1.0 ENE 9 9 5 5 1027.6 1027.7 0.0
21/08:00pm 6.4 3.9 4.7 89 0.7 ENE 7 9 4 5 1027.6 1027.7 0.0
21/07:30pm 6.4 4.0 4.4 87 0.9 ENE 6 7 3 4 1027.4 1027.5 0.0
21/07:00pm 6.7 5.0 4.2 84 1.1 E 2 9 1 5 1027.3 1027.4 0.0
21/06:30pm 8.2 7.1 5.3 82 1.3 CALM 0 0 0 0 1027.1 1027.2 0.0
21/06:00pm 8.4 6.0 4.4 76 1.7 SSE 6 7 3 4 1026.9 1027.0 0.0
21/05:30pm 10.3 7.9 5.1 70 2.3 SSE 7 11 4 6 1026.7 1026.8 0.0
21/05:00pm 12.6 10.5 6.6 67 2.9 SSW 7 7 4 4 1026.4 1026.5 0.0
21/04:30pm 13.9 12.1 5.3 56 4.0 SW 4 11 2 6 1026.2 1026.3 0.0
21/04:00pm 14.2 12.0 5.3 55 4.2 SSW 6 11 3 6 1026.1 1026.2 0.0
21/03:30pm 14.4 11.8 6.3 58 3.9 NE 9 15 5 8 1025.9 1026.0 0.0
21/03:00pm 14.3 12.2 5.7 56 4.1 S 6 11 3 6 1026.0 1026.1 0.0
21/02:30pm 14.1 11.4 5.5 56 4.0 NNW 9 13 5 7 1026.1 1026.2 0.0
21/02:00pm 14.3 11.9 6.9 61 3.6 ENE 9 19 5 10 1026.1 1026.2 0.0
21/01:30pm 12.8 9.6 5.2 60 3.5 NE 11 17 6 9 1026.3 1026.4 0.0
21/01:00pm 12.8 10.0 5.0 59 3.6 N 9 15 5 8 1026.9 1027.0 0.0
21/12:30pm 12.5 9.9 4.0 56 3.8 N 7 11 4 6 1027.3 1027.4 0.0
21/12:00pm 12.4 9.7 3.6 55 3.9 N 7 11 4 6 1027.8 1027.9 0.0
21/11:30am 13.1 10.9 6.2 63 3.3 NW 7 13 4 7 1028.1 1028.2 0.0
21/11:00am 11.4 10.4 5.5 67 2.7 CALM 0 0 0 0 1028.4 1028.5 0.0
21/10:30am 11.0 9.2 5.5 69 2.5 WNW 4 7 2 4 1028.7 1028.8 0.0
21/10:00am 10.8 8.9 6.7 76 1.9 N 6 7 3 4 1028.8 1028.9 0.0
21/09:30am 9.7 8.5 6.6 81 1.4 NNE 2 7 1 4 1028.9 1029.0 0.0
21/09:00am 8.4 7.4 7.2 92 0.6 ENE 2 6 1 3 1028.9 1029.0 0.0
21/08:30am 7.0 6.2 6.4 96 0.3 CALM 0 0 0 0 1028.9 1029.0 0.0
21/08:00am 6.0 4.6 5.6 97 0.2 ENE 2 6 1 3 1029.0 1029.1 0.0
21/07:30am 5.3 4.2 5.0 98 0.1 CALM 0 0 0 0 1028.7 1028.8 0.0
21/07:00am 5.0 3.8 4.7 98 0.1 CALM 0 0 0 0 1028.6 1028.7 0.0
21/06:30am 4.4 1.4 4.1 98 0.1 N 9 11 5 6 1028.3 1028.4 0.0
21/06:00am 1.7 -0.1 1.4 98 0.1 CALM 0 0 0 0 1027.9 1028.0 0.0
21/05:30am 2.0 0.3 1.7 98 0.1 CALM 0 0 0 0 1027.8 1027.9 0.0
21/05:00am 1.7 -0.1 1.3 97 0.2 CALM 0 0 0 0 1027.7 1027.8 0.0
21/04:30am 1.6 -0.2 1.2 97 0.1 CALM 0 0 0 0 1027.7 1027.8 0.0

Other Formats:

Comma delimited format used in spreadsheet applications
http://www.bom.gov.au/fwo/IDS60801/IDS60801.94820.axf

JavaScript Object Notation format (JSON) in row-major order
http://www.bom.gov.au/fwo/IDS60801/IDS60801.94820.json